Time;durP1;ratioP1;P1;durP2;ratioP2;P2;SDS_P1;SDS_P2;PMS_P1;PMS_P2;Temp;Humidity;BMP_temperature;BMP_pressure;BME280_temperature;BME280_humidity;BME280_pressure;Samples;Min_cycle;Max_cycle;Signal;HPM_P1;HPM_P2
2021/05/11 00:00:15;;;;;;;;;;;8.90;99.90;;;;;;5056199;28;19974;-81
2021/05/11 00:02:41;;;;;;;;;;;8.80;99.90;;;;;;5055302;28;19928;-81
2021/05/11 00:05:08;;;;;;;;;;;8.80;99.90;;;;;;5056227;28;19920;-81
2021/05/11 00:07:34;;;;;;;;;;;8.80;99.90;;;;;;5055921;28;20400;-80
2021/05/11 00:10:02;;;;;;;;;;;8.80;99.90;;;;;;5055899;28;19924;-81
2021/05/11 00:12:28;;;;;;;;;;;8.80;99.90;;;;;;5056060;28;19924;-80
2021/05/11 00:14:54;;;;;;;;;;;8.70;99.90;;;;;;5056141;28;20414;-80
2021/05/11 00:17:21;;;;;;;;;;;8.70;99.90;;;;;;5056234;28;20257;-80
2021/05/11 00:19:47;;;;;;;;;;;8.70;99.90;;;;;;5055972;28;19946;-80
2021/05/11 00:22:13;;;;;;;;;;;8.70;99.90;;;;;;5056235;28;19920;-81
2021/05/11 00:24:40;;;;;;;;;;;8.70;99.90;;;;;;5055887;28;19943;-81
2021/05/11 00:27:07;;;;;;;;;;;8.70;99.90;;;;;;5055888;28;19932;-80
2021/05/11 00:29:33;;;;;;;;;;;8.60;99.90;;;;;;5056014;28;19921;-80
2021/05/11 00:32:00;;;;;;;;;;;8.60;99.90;;;;;;5055718;28;19931;-80
2021/05/11 00:34:26;;;;;;;;;;;8.60;99.90;;;;;;5055823;28;19921;-80
2021/05/11 00:36:52;;;;;;;;;;;8.60;99.90;;;;;;5055752;28;19920;-80
2021/05/11 00:39:19;;;;;;;;;;;8.60;99.90;;;;;;5055230;28;19921;-80
2021/05/11 00:41:45;;;;;;;;;;;8.60;99.90;;;;;;5056141;28;19954;-80
2021/05/11 00:44:21;;;;;;;;;;;8.50;99.90;;;;;;5055595;28;19927;-80
2021/05/11 00:46:55;;;;;;;;;;;8.50;99.90;;;;;;5055539;28;19921;-80
2021/05/11 00:49:21;;;;;;;;;;;8.50;99.90;;;;;;5055474;28;20343;-80
2021/05/11 00:51:47;;;;;;;;;;;8.50;99.90;;;;;;5055484;28;20317;-80
2021/05/11 00:54:14;;;;;;;;;;;8.50;99.90;;;;;;5055648;28;19920;-80
2021/05/11 00:56:40;;;;;;;;;;;8.50;99.90;;;;;;5056043;28;19920;-80
2021/05/11 00:59:12;;;;;;;;;;;8.40;99.90;;;;;;5055539;28;20022;-79
2021/05/11 01:01:39;;;;;;;;;;;8.40;99.90;;;;;;5055751;28;19921;-80
2021/05/11 01:04:05;;;;;;;;;;;8.40;99.90;;;;;;5055579;28;19927;-80
2021/05/11 01:06:32;;;;;;;;;;;8.40;99.90;;;;;;5055820;28;19928;-80
2021/05/11 01:08:58;;;;;;;;;;;8.40;99.90;;;;;;5055484;28;19985;-80
2021/05/11 01:11:24;;;;;;;;;;;8.40;99.90;;;;;;5055684;28;19921;-80
2021/05/11 01:13:51;;;;;;;;;;;8.40;99.90;;;;;;5055325;28;19931;-80
2021/05/11 01:16:17;;;;;;;;;;;8.40;99.90;;;;;;5055685;28;19990;-80
2021/05/11 01:18:47;;;;;;;;;;;8.40;99.90;;;;;;5055398;28;20333;-80
2021/05/11 01:21:24;;;;;;;;;;;8.40;99.90;;;;;;5055208;28;19943;-80
2021/05/11 01:24:04;;;;;;;;;;;8.40;99.90;;;;;;5055630;28;19983;-79
2021/05/11 01:26:33;;;;;;;;;;;8.40;99.90;;;;;;5055207;28;20002;-80
2021/05/11 01:29:10;;;;;;;;;;;8.30;99.90;;;;;;5055577;28;20261;-80
2021/05/11 01:31:56;;;;;;;;;;;8.30;99.90;;;;;;5055532;28;20003;-80
2021/05/11 01:48:17;;;;;;;;;;;8.20;99.90;;;;;;4994944;28;19921;-80
2021/05/11 01:50:48;;;;;;;;;;;8.20;99.90;;;;;;4994787;28;19997;-80
2021/05/11 01:56:25;;;;;;;;;;;8.20;99.90;;;;;;4995716;28;19922;-80
2021/05/11 02:10:13;;;;;;;;;;;8.00;99.90;;;;;;4921389;29;20049;-80
2021/05/11 02:18:29;;;;;;;;;;;7.90;99.90;;;;;;4921348;29;19937;-80
2021/05/11 02:23:39;;;;;;;;;;;7.80;99.90;;;;;;4945708;28;19976;-79
2021/05/11 02:26:06;;;;;;;;;;;7.70;99.90;;;;;;4979880;28;19933;-80
2021/05/11 02:28:33;;;;;;;;;;;7.60;99.90;;;;;;4981922;28;19925;-80
2021/05/11 02:30:59;;;;;;;;;;;7.60;99.90;;;;;;4979682;28;19932;-79
2021/05/11 02:33:26;;;;;;;;;;;7.60;99.90;;;;;;4979430;28;19922;-80
2021/05/11 02:35:52;;;;;;;;;;;7.60;99.90;;;;;;4979956;28;19953;-80
2021/05/11 02:38:18;;;;;;;;;;;7.50;99.90;;;;;;4980496;28;19933;-79
2021/05/11 02:40:45;;;;;;;;;;;7.50;99.90;;;;;;4980449;28;19929;-79
2021/05/11 02:43:15;;;;;;;;;;;7.50;99.90;;;;;;5007379;28;20023;-79
2021/05/11 02:45:42;;;;;;;;;;;7.50;99.90;;;;;;5060117;28;19931;-79
2021/05/11 02:48:08;;;;;;;;;;;7.40;99.90;;;;;;5060256;28;19920;-79
2021/05/11 02:50:35;;;;;;;;;;;7.40;99.90;;;;;;5060459;28;19921;-79
2021/05/11 02:53:01;;;;;;;;;;;7.30;99.90;;;;;;5059974;28;19973;-79
2021/05/11 02:55:28;;;;;;;;;;;7.30;99.90;;;;;;5060722;28;19925;-79
2021/05/11 02:57:54;;;;;;;;;;;7.30;99.90;;;;;;5061966;28;20310;-79
2021/05/11 03:00:21;;;;;;;;;;;7.30;99.90;;;;;;5060676;28;19982;-79
2021/05/11 03:02:48;;;;;;;;;;;7.30;99.90;;;;;;5061095;28;19927;-79
2021/05/11 03:05:15;;;;;;;;;;;7.20;99.90;;;;;;5061186;28;19920;-79
2021/05/11 03:07:41;;;;;;;;;;;7.20;99.90;;;;;;5060491;28;20023;-79
2021/05/11 03:10:08;;;;;;;;;;;7.20;99.90;;;;;;5060721;28;19921;-79
2021/05/11 03:12:35;;;;;;;;;;;7.20;99.90;;;;;;5061025;28;19928;-79
2021/05/11 03:15:01;;;;;;;;;;;7.20;99.90;;;;;;5060495;28;19964;-79
2021/05/11 03:17:27;;;;;;;;;;;7.20;99.90;;;;;;5060478;28;19931;-79
2021/05/11 03:19:55;;;;;;;;;;;7.10;99.90;;;;;;5060882;28;19920;-79
2021/05/11 03:22:21;;;;;;;;;;;7.20;99.90;;;;;;5060922;28;20258;-79
2021/05/11 03:24:47;;;;;;;;;;;7.20;99.90;;;;;;5060965;28;19925;-79
2021/05/11 03:27:14;;;;;;;;;;;7.20;99.90;;;;;;5060461;28;19982;-79
2021/05/11 03:29:40;;;;;;;;;;;7.20;99.90;;;;;;5060812;28;20015;-79
2021/05/11 03:32:07;;;;;;;;;;;7.20;99.90;;;;;;5059892;28;20269;-79
2021/05/11 03:34:33;;;;;;;;;;;7.30;99.90;;;;;;5059909;28;20261;-79
2021/05/11 03:37:00;;;;;;;;;;;7.30;99.90;;;;;;5059130;28;20260;-79
2021/05/11 03:39:26;;;;;;;;;;;7.40;99.90;;;;;;5060444;28;19931;-79
2021/05/11 03:41:55;;;;;;;;;;;7.40;99.90;;;;;;5059875;28;19920;-79
2021/05/11 03:44:24;;;;;;;;;;;7.40;99.90;;;;;;5060397;28;19931;-80
2021/05/11 03:46:51;;;;;;;;;;;7.40;99.90;;;;;;5060776;28;19921;-79
2021/05/11 03:49:17;;;;;;;;;;;7.40;99.90;;;;;;5059943;28;20420;-79
2021/05/11 03:51:43;;;;;;;;;;;7.40;99.90;;;;;;5059699;28;19947;-79
2021/05/11 03:54:11;;;;;;;;;;;7.40;99.90;;;;;;5059164;28;20340;-79
2021/05/11 03:56:37;;;;;;;;;;;7.40;99.90;;;;;;5059505;28;19936;-79
2021/05/11 03:59:03;;;;;;;;;;;7.40;99.90;;;;;;5059296;28;19920;-79
2021/05/11 04:01:30;;;;;;;;;;;7.40;99.90;;;;;;5059615;28;19921;-79
2021/05/11 04:03:56;;;;;;;;;;;7.40;99.90;;;;;;5060674;28;19921;-80
2021/05/11 04:06:23;;;;;;;;;;;7.40;99.90;;;;;;5060201;28;19947;-79
2021/05/11 04:08:52;;;;;;;;;;;7.40;99.90;;;;;;5059360;28;20435;-79
2021/05/11 04:11:34;;;;;;;;;;;7.40;99.90;;;;;;5059948;28;19920;-79
2021/05/11 04:17:00;;;;;;;;;;;7.50;99.90;;;;;;5058350;28;19920;-79
2021/05/11 04:19:26;;;;;;;;;;;7.50;99.90;;;;;;5059463;28;19932;-79
2021/05/11 04:21:52;;;;;;;;;;;7.50;99.90;;;;;;5059457;28;19928;-79
2021/05/11 04:24:22;;;;;;;;;;;7.40;99.90;;;;;;5059018;28;19931;-79
2021/05/11 04:26:49;;;;;;;;;;;7.50;99.90;;;;;;5060096;28;19976;-79
2021/05/11 04:29:16;;;;;;;;;;;7.40;99.90;;;;;;5057592;28;20345;-79
2021/05/11 04:31:42;;;;;;;;;;;7.50;99.90;;;;;;5057524;28;20264;-79
2021/05/11 04:34:08;;;;;;;;;;;7.50;99.90;;;;;;5057220;28;20349;-79
2021/05/11 04:36:35;;;;;;;;;;;7.50;99.90;;;;;;5057737;28;20303;-79
2021/05/11 04:39:01;;;;;;;;;;;7.50;99.90;;;;;;5058001;28;19920;-79
2021/05/11 04:41:28;;;;;;;;;;;7.50;99.90;;;;;;5058094;28;19975;-79
2021/05/11 04:43:57;;;;;;;;;;;7.50;99.90;;;;;;5057709;28;19920;-79
2021/05/11 04:46:27;;;;;;;;;;;7.60;99.90;;;;;;5057492;28;19983;-79
2021/05/11 04:48:53;;;;;;;;;;;7.50;99.90;;;;;;5057635;28;19931;-79
2021/05/11 04:51:20;;;;;;;;;;;7.60;99.90;;;;;;5057716;28;20011;-79
2021/05/11 04:53:46;;;;;;;;;;;7.60;99.90;;;;;;5057388;28;19927;-79
2021/05/11 04:56:13;;;;;;;;;;;7.60;99.90;;;;;;5056673;28;19932;-79
2021/05/11 04:58:39;;;;;;;;;;;7.60;99.90;;;;;;5056752;28;19920;-79
2021/05/11 05:01:06;;;;;;;;;;;7.60;99.90;;;;;;5056244;28;19928;-79
2021/05/11 05:03:35;;;;;;;;;;;7.70;99.90;;;;;;5056413;28;20019;-79
2021/05/11 05:06:01;;;;;;;;;;;7.70;99.90;;;;;;5055982;28;19924;-79
2021/05/11 05:08:28;;;;;;;;;;;7.70;99.90;;;;;;5055962;28;19924;-79
2021/05/11 05:10:54;;;;;;;;;;;7.80;99.90;;;;;;5056194;28;19920;-79
2021/05/11 05:13:21;;;;;;;;;;;7.80;99.90;;;;;;5055856;28;19974;-79
2021/05/11 05:15:49;;;;;;;;;;;7.80;99.90;;;;;;5055985;28;20034;-79
2021/05/11 05:18:17;;;;;;;;;;;7.80;99.90;;;;;;5055817;28;20264;-79
2021/05/11 05:20:43;;;;;;;;;;;7.90;99.90;;;;;;5055757;28;20439;-79
2021/05/11 05:23:09;;;;;;;;;;;7.90;99.90;;;;;;5056266;28;20326;-79
2021/05/11 05:25:36;;;;;;;;;;;8.00;99.90;;;;;;5055600;28;20410;-79
2021/05/11 05:28:06;;;;;;;;;;;8.00;99.90;;;;;;5055498;28;19924;-79
2021/05/11 05:30:33;;;;;;;;;;;8.00;99.90;;;;;;5055733;28;20015;-79
2021/05/11 05:33:02;;;;;;;;;;;8.10;99.90;;;;;;5055554;28;19920;-79
2021/05/11 05:35:29;;;;;;;;;;;8.10;99.90;;;;;;5055212;28;19928;-79
2021/05/11 05:37:56;;;;;;;;;;;8.20;99.90;;;;;;5055262;28;19920;-79
2021/05/11 05:40:22;;;;;;;;;;;8.20;99.90;;;;;;5055172;28;19931;-79
2021/05/11 05:42:49;;;;;;;;;;;8.20;99.90;;;;;;5054811;28;19920;-79
2021/05/11 05:45:15;;;;;;;;;;;8.30;99.90;;;;;;5054953;28;19921;-79
2021/05/11 05:47:51;;;;;;;;;;;8.30;99.90;;;;;;5055408;28;19921;-79
2021/05/11 05:50:17;;;;;;;;;;;8.30;99.90;;;;;;5055019;28;20246;-79
2021/05/11 05:52:45;;;;;;;;;;;8.40;99.90;;;;;;5055043;28;19920;-79
2021/05/11 05:55:12;;;;;;;;;;;8.50;99.90;;;;;;5054913;28;19931;-79
2021/05/11 05:57:39;;;;;;;;;;;8.60;99.90;;;;;;5055158;28;20003;-80
2021/05/11 06:00:06;;;;;;;;;;;8.70;99.90;;;;;;5055076;28;20308;-80
2021/05/11 06:02:32;;;;;;;;;;;8.90;99.90;;;;;;5058781;28;20266;-80
2021/05/11 06:04:58;;;;;;;;;;;9.00;99.90;;;;;;5058916;28;20295;-80
2021/05/11 06:07:25;;;;;;;;;;;9.00;99.90;;;;;;5058716;28;19929;-80
2021/05/11 06:09:54;;;;;;;;;;;9.10;99.90;;;;;;5059014;28;20003;-80
2021/05/11 06:12:24;;;;;;;;;;;9.20;99.90;;;;;;5058908;28;19972;-81
2021/05/11 06:17:01;;;;;;;;;;;9.30;99.90;;;;;;5058791;28;19929;-81
2021/05/11 06:17:40;;;;;;;;;;;9.40;99.90;;;;;;5058695;28;20284;-81
2021/05/11 06:20:07;;;;;;;;;;;9.50;99.90;;;;;;5058430;28;19928;-81
2021/05/11 06:22:33;;;;;;;;;;;9.70;99.90;;;;;;5058803;28;19920;-80
2021/05/11 06:25:00;;;;;;;;;;;9.80;99.90;;;;;;5058642;28;19922;-81
2021/05/11 06:27:27;;;;;;;;;;;9.90;99.90;;;;;;5058672;28;19943;-81
2021/05/11 06:29:56;;;;;;;;;;;10.10;99.90;;;;;;5058299;28;20130;-81
2021/05/11 06:32:22;;;;;;;;;;;10.30;99.90;;;;;;5058303;28;20352;-82
2021/05/11 06:34:54;;;;;;;;;;;11.20;99.90;;;;;;5058469;28;19921;-79
2021/05/11 06:37:21;;;;;;;2.97;1.05;;;13.20;99.90;;;;;;5056664;28;20451;-79
2021/05/11 06:39:49;;;;;;;1.08;0.70;;;15.80;99.90;;;;;;5057995;28;20056;-80
2021/05/11 06:42:20;;;;;;;1.40;0.40;;;18.20;99.90;;;;;;5057787;28;20052;-80
2021/05/11 06:45:01;;;;;;;3.25;0.52;;;20.30;99.90;;;;;;5057954;28;20426;-80
2021/05/11 06:47:32;;;;;;;1.67;0.52;;;21.80;99.90;;;;;;5057622;28;20148;-80
2021/05/11 06:50:25;;;;;;;2.50;0.93;;;23.00;98.10;;;;;;5057618;28;20041;-80
2021/05/11 06:53:01;;;;;;;0.65;0.30;;;23.30;98.40;;;;;;5057940;28;20052;-80
2021/05/11 06:55:28;;;;;;;2.72;1.10;;;24.30;97.00;;;;;;5057414;28;20060;-80
2021/05/11 06:57:55;;;;;;;4.10;0.47;;;24.80;94.70;;;;;;5057618;28;20059;-80
2021/05/11 07:00:22;;;;;;;0.65;0.43;;;25.00;93.40;;;;;;5057558;28;20049;-80
2021/05/11 07:02:50;;;;;;;3.53;0.80;;;24.40;76.30;;;;;;5057564;28;20045;-80
2021/05/11 07:05:17;;;;;;;2.05;0.45;;;23.70;86.20;;;;;;5057208;28;20382;-80
2021/05/11 07:07:44;;;;;;;3.33;0.65;;;22.60;93.50;;;;;;5057216;28;20143;-80
2021/05/11 07:10:18;;;;;;;2.38;1.02;;;21.00;88.70;;;;;;5057276;28;20045;-80
2021/05/11 07:15:30;;;;;;;1.30;0.70;;;18.40;99.90;;;;;;5057313;28;20098;-80
2021/05/11 07:18:11;;;;;;;5.97;0.82;;;18.60;99.90;;;;;;5057321;28;20048;-80
2021/05/11 07:20:38;;;;;;;2.42;0.75;;;19.70;99.90;;;;;;5056959;28;20136;-80
2021/05/11 07:23:04;;;;;;;2.22;0.80;;;19.60;99.90;;;;;;5057291;28;20045;-80
2021/05/11 07:25:35;;;;;;;1.85;0.68;;;18.70;99.90;;;;;;5057172;28;20060;-80
2021/05/11 07:31:03;;;;;;;5.18;1.40;;;18.50;99.90;;;;;;5015493;28;20073;-80
2021/05/11 07:33:32;;;;;;;2.47;1.02;;;20.70;99.20;;;;;;5015415;28;20104;-80
2021/05/11 07:35:59;;;;;;;2.13;0.47;;;22.40;89.40;;;;;;5015483;28;20085;-79
2021/05/11 07:38:26;;;;;;;2.85;0.73;;;23.90;79.80;;;;;;5015377;28;20046;-78
2021/05/11 07:40:52;;;;;;;2.70;0.70;;;25.00;60.10;;;;;;5014855;28;20160;-78
2021/05/11 07:43:20;;;;;;;3.65;0.80;;;25.60;58.30;;;;;;5015263;28;20071;-77
2021/05/11 07:46:06;;;;;;;3.58;1.02;;;26.40;59.50;;;;;;5015317;28;20050;-78
2021/05/11 07:48:48;;;;;;;4.68;0.40;;;26.70;56.40;;;;;;5015219;28;20463;-78
2021/05/11 07:51:45;;;;;;;2.40;0.63;;;27.00;55.40;;;;;;5015010;28;20041;-78
2021/05/11 08:05:19;;;;;;;1.52;0.40;;;27.00;54.20;;;;;;5030190;28;20048;-77
2021/05/11 08:10:36;;;;;;;4.43;2.05;;;23.40;58.80;;;;;;5056126;28;20136;-77
2021/05/11 08:15:51;;;;;;;5.22;1.30;;;20.00;88.70;;;;;;5056223;28;20055;-77
2021/05/11 08:18:24;;;;;;;0.55;0.30;;;18.70;96.00;;;;;;5055076;28;20087;-77
2021/05/11 08:29:08;;;;;;;3.10;0.55;;;16.40;99.90;;;;;;5055833;28;20114;-77
2021/05/11 08:31:35;;;;;;;5.75;1.42;;;16.30;99.90;;;;;;5056033;28;20049;-77
2021/05/11 08:34:02;;;;;;;1.55;0.65;;;16.00;99.90;;;;;;5055575;28;20159;-77
2021/05/11 08:36:29;;;;;;;1.60;0.50;;;15.80;99.90;;;;;;5055890;28;20055;-77
2021/05/11 08:38:58;;;;;;;1.23;0.25;;;15.50;99.90;;;;;;5055490;28;20466;-77
2021/05/11 08:41:25;;;;;;;7.53;0.90;;;15.20;99.90;;;;;;5055272;28;20052;-77
2021/05/11 08:43:51;;;;;;;1.95;0.80;;;15.00;99.90;;;;;;5055566;28;20056;-77
2021/05/11 08:46:18;;;;;;;1.52;0.77;;;14.90;99.90;;;;;;5055617;28;20053;-77
2021/05/11 08:48:44;;;;;;;1.65;0.90;;;14.80;99.90;;;;;;5055326;28;20045;-77
2021/05/11 08:51:14;;;;;;;2.08;0.52;;;14.70;99.90;;;;;;5055285;28;20433;-77
2021/05/11 09:04:59;;;;;;;4.20;0.80;;;14.60;99.90;;;;;;5013836;28;20050;-77
2021/05/11 09:24:02;;;;;;;1.48;0.90;;;14.80;99.90;;;;;;5013543;28;20116;-78
2021/05/11 09:26:42;;;;;;;2.25;0.57;;;14.70;99.90;;;;;;5013488;28;20050;-78
2021/05/11 09:29:26;;;;;;;1.30;1.13;;;14.60;99.90;;;;;;5013530;28;20045;-78
2021/05/11 09:32:00;;;;;;;1.17;0.32;;;14.50;99.90;;;;;;5013466;28;20169;-76
2021/05/11 09:34:33;;;;;;;1.52;0.50;;;14.40;99.90;;;;;;5012717;28;20094;-76
2021/05/11 09:45:58;;;;;;;3.63;0.57;;;14.00;99.90;;;;;;5054709;28;20060;-76
2021/05/11 09:54:30;;;;;;;1.50;0.40;;;14.30;99.90;;;;;;4993592;28;20050;-78
2021/05/11 09:57:07;;;;;;;0.20;0.15;;;14.40;99.90;;;;;;4993512;28;20054;-79
2021/05/11 10:39:45;;;;;;;1.30;0.50;;;14.80;99.90;;;;;;4993207;28;20383;-77
2021/05/11 10:42:22;;;;;;;1.38;0.40;;;14.80;99.90;;;;;;4993132;28;20055;-77
2021/05/11 10:48:17;;;;;;;2.85;0.95;;;15.00;99.90;;;;;;4994684;28;20436;-77
2021/05/11 10:50:45;;;;;;;3.27;0.23;;;14.90;99.90;;;;;;4996500;28;20046;-79
2021/05/11 10:53:43;;;;;;;0.10;0.10;;;14.80;99.90;;;;;;4996306;28;20058;-77
2021/05/11 10:57:01;;;;;;;4.53;1.15;;;14.70;99.90;;;;;;4970607;28;20054;-77
2021/05/11 11:05:35;;;;;;;0.82;0.13;;;14.40;99.90;;;;;;4996428;28;20046;-77
2021/05/11 11:08:03;;;;;;;1.45;0.20;;;14.60;99.90;;;;;;4996138;28;20058;-78
2021/05/11 11:10:30;;;;;;;1.55;0.38;;;14.60;99.90;;;;;;5035116;28;20533;-78
2021/05/11 11:12:57;;;;;;;0.00;0.00;;;14.60;99.90;;;;;;5057061;28;20048;-77
2021/05/11 11:15:24;;;;;;;3.63;0.70;;;14.60;99.90;;;;;;5057031;28;20049;-78
2021/05/11 11:17:52;;;;;;;2.20;0.47;;;14.60;99.90;;;;;;5057237;28;20358;-81
2021/05/11 11:20:22;;;;;;;2.70;0.90;;;14.70;99.90;;;;;;5057049;28;20081;-77
2021/05/11 11:26:03;;;;;;;0.90;0.30;;;14.60;99.90;;;;;;5044874;28;20106;-76
2021/05/11 11:28:30;;;;;;;2.17;0.38;;;14.60;99.90;;;;;;5056687;28;20521;-77
2021/05/11 11:30:57;;;;;;;3.10;0.68;;;14.60;99.90;;;;;;5056011;28;20045;-76
2021/05/11 11:33:23;;;;;;;2.78;0.40;;;14.50;99.90;;;;;;5057062;28;20458;-77
2021/05/11 11:35:50;;;;;;;0.40;0.20;;;14.50;99.90;;;;;;5056826;28;20059;-76
2021/05/11 11:38:25;;;;;;;1.00;0.20;;;14.50;99.90;;;;;;5056639;28;20049;-76
2021/05/11 11:40:59;;;;;;;0.40;0.10;;;14.60;99.90;;;;;;5056875;28;20049;-76
2021/05/11 11:43:26;;;;;;;2.23;0.27;;;14.70;99.90;;;;;;5056874;28;20392;-76
2021/05/11 11:45:53;;;;;;;1.55;0.32;;;14.70;99.90;;;;;;5056795;28;20302;-76
2021/05/11 11:48:21;;;;;;;1.27;0.40;;;14.70;99.90;;;;;;5056458;28;20055;-75
2021/05/11 11:50:58;;;;;;;0.52;0.20;;;14.60;99.90;;;;;;5056893;28;20131;-76
2021/05/11 11:53:30;;;;;;;1.50;0.90;;;14.60;99.90;;;;;;5056481;28;20064;-76
2021/05/11 11:58:38;;;;;;;0.55;0.52;;;14.20;99.90;;;;;;5053395;28;20099;-77
2021/05/11 12:01:15;;;;;;;2.53;0.75;;;14.00;99.90;;;;;;5056231;28;20405;-77
2021/05/11 12:03:42;;;;;;;1.13;0.30;;;13.70;99.90;;;;;;5056436;28;20056;-75
2021/05/11 12:06:10;;;;;;;1.52;0.17;;;13.30;99.90;;;;;;5056168;28;20055;-74
2021/05/11 12:08:38;;;;;;;2.67;0.30;;;12.90;99.90;;;;;;5056029;28;20097;-75
2021/05/11 12:11:06;;;;;;;1.60;0.50;;;12.50;99.90;;;;;;5056314;28;20041;-76
2021/05/11 12:13:33;;;;;;;0.85;0.50;;;12.20;99.90;;;;;;5056323;28;20049;-77
2021/05/11 12:16:15;;;;;;;2.15;0.70;;;12.10;99.90;;;;;;5056241;28;20048;-77
2021/05/11 12:19:00;;;;;;;1.08;0.30;;;12.20;99.90;;;;;;5055866;28;20091;-77
2021/05/11 12:21:27;;;;;;;1.65;0.50;;;12.20;99.90;;;;;;5055659;28;20144;-78
2021/05/11 12:24:04;;;;;;;1.30;0.10;;;12.10;99.90;;;;;;5055822;28;20458;-77
2021/05/11 12:26:31;;;;;;;2.85;0.20;;;12.10;99.90;;;;;;5055856;28;20045;-76
2021/05/11 12:29:05;;;;;;;0.30;0.10;;;12.20;99.90;;;;;;5055778;28;20048;-76
2021/05/11 12:31:35;;;;;;;0.45;0.28;;;12.20;99.90;;;;;;5055660;28;20051;-77
2021/05/11 12:34:05;;;;;;;1.08;0.28;;;12.10;99.90;;;;;;5055784;28;20063;-77
2021/05/11 12:36:31;;;;;;;0.20;0.10;;;12.20;99.90;;;;;;5055600;28;20526;-79
2021/05/11 12:39:22;;;;;;;1.13;0.90;;;12.20;99.90;;;;;;5055465;28;20516;-77
2021/05/11 12:41:48;;;;;;;0.57;0.20;;;12.30;99.90;;;;;;5055393;28;20215;-77
2021/05/11 12:44:27;;;;;;;0.85;0.20;;;12.30;99.90;;;;;;5055543;28;20458;-77
2021/05/11 12:46:58;;;;;;;0.85;0.22;;;12.20;99.90;;;;;;5055453;28;20454;-77
2021/05/11 12:49:25;;;;;;;2.47;0.47;;;12.20;99.90;;;;;;5055580;28;20051;-78
2021/05/11 12:51:52;;;;;;;0.50;0.25;;;12.20;99.90;;;;;;5055414;28;20045;-77
2021/05/11 12:54:24;;;;;;;0.30;0.25;;;12.10;99.90;;;;;;5055204;28;20053;-78
2021/05/11 12:57:01;;;;;;;1.23;0.20;;;12.00;99.90;;;;;;5055431;28;20049;-79
2021/05/11 12:59:33;;;;;;;2.25;0.30;;;11.90;99.90;;;;;;5055240;28;20052;-78
2021/05/11 13:02:05;;;;;;;0.10;0.10;;;11.80;99.90;;;;;;5055317;28;20045;-78
2021/05/11 13:26:43;;;;;;;;;;;11.40;99.90;;;;;;5055341;28;20055;-78
2021/05/11 13:29:17;;;;;;;;;;;11.40;99.90;;;;;;5055403;28;19924;-77
2021/05/11 13:31:48;;;;;;;;;;;11.30;99.90;;;;;;5055091;28;19920;-77
2021/05/11 13:34:15;;;;;;;;;;;11.30;99.90;;;;;;5055116;28;19931;-76
2021/05/11 13:36:41;;;;;;;;;;;11.40;99.90;;;;;;5055125;28;19920;-77
2021/05/11 13:39:08;;;;;;;;;;;11.40;99.90;;;;;;5055383;28;19940;-76
2021/05/11 13:41:34;;;;;;;;;;;11.40;99.90;;;;;;5055206;28;19933;-77
2021/05/11 13:44:01;;;;;;;;;;;11.40;99.90;;;;;;5054949;28;19921;-77
2021/05/11 13:46:28;;;;;;;;;;;11.40;99.90;;;;;;5054967;28;19925;-78
2021/05/11 13:48:54;;;;;;;;;;;11.40;99.90;;;;;;5054858;28;19931;-76
2021/05/11 13:51:20;;;;;;;;;;;11.40;99.90;;;;;;5054810;28;20345;-77
2021/05/11 13:53:48;;;;;;;;;;;11.40;99.90;;;;;;5054854;28;20349;-76
2021/05/11 14:02:01;;;;;;;;;;;11.40;99.90;;;;;;5054889;28;19931;-76
2021/05/11 14:04:28;;;;;;;;;;;11.40;99.90;;;;;;5054775;28;20258;-76
2021/05/11 14:06:55;;;;;;;;;;;11.40;99.90;;;;;;5054856;28;20010;-76
2021/05/11 14:09:21;;;;;;;;;;;11.40;99.90;;;;;;5054682;28;20253;-76
2021/05/11 14:11:47;;;;;;;;;;;11.40;99.90;;;;;;5054554;28;20272;-76
2021/05/11 14:14:14;;;;;;;;;;;11.40;99.90;;;;;;5054642;28;19986;-76
2021/05/11 14:16:42;;;;;;;;;;;11.40;99.90;;;;;;5054887;28;19921;-76
2021/05/11 14:19:09;;;;;;;;;;;11.50;99.90;;;;;;5054557;28;19931;-77
2021/05/11 14:21:35;;;;;;;;;;;11.60;99.90;;;;;;5055315;28;20406;-76
2021/05/11 14:24:02;;;;;;;;;;;11.70;99.90;;;;;;5058200;28;20082;-74
2021/05/11 14:26:29;;;;;;;;;;;11.80;99.90;;;;;;5058495;28;19935;-75
2021/05/11 14:28:56;;;;;;;;;;;11.90;99.90;;;;;;5058636;28;19936;-76
2021/05/11 14:31:23;;;;;;;;;;;12.00;99.90;;;;;;5058290;28;19980;-77
2021/05/11 14:33:50;;;;;;;;;;;12.00;99.90;;;;;;5058305;28;19934;-77
2021/05/11 14:36:16;;;;;;;;;;;12.10;99.90;;;;;;5058649;28;19921;-85
2021/05/11 14:38:43;;;;;;;;;;;12.10;99.90;;;;;;5058656;28;19920;-80
2021/05/11 14:41:09;;;;;;;;;;;12.10;99.90;;;;;;5058336;28;19920;-79
2021/05/11 14:43:35;;;;;;;;;;;12.10;99.90;;;;;;5058129;28;19970;-78
2021/05/11 14:46:02;;;;;;;;;;;12.20;99.90;;;;;;5058334;28;19931;-80
2021/05/11 14:48:29;;;;;;;;;;;12.40;99.90;;;;;;5058207;28;19935;-81
2021/05/11 14:50:56;;;;;;;;;;;12.50;99.90;;;;;;5058580;28;19920;-80
2021/05/11 14:53:23;;;;;;;;;;;12.60;99.90;;;;;;5058038;28;19921;-78
2021/05/11 14:55:49;;;;;;;;;;;12.70;99.90;;;;;;5057891;28;19921;-80
2021/05/11 14:58:15;;;;;;;;;;;12.80;99.90;;;;;;5057863;28;20351;-82
2021/05/11 15:00:42;;;;;;;;;;;12.80;99.90;;;;;;5057605;28;20337;-75
2021/05/11 15:03:11;;;;;;;;;;;12.90;99.90;;;;;;5054529;28;19950;-75
2021/05/11 15:05:37;;;;;;;;;;;13.00;99.90;;;;;;5041557;28;19931;-77
2021/05/11 15:08:05;;;;;;;;;;;13.10;99.90;;;;;;5036880;28;19920;-77
2021/05/11 15:10:31;;;;;;;;;;;13.10;99.90;;;;;;5035727;28;20227;-77
2021/05/11 15:12:57;;;;;;;;;;;13.20;99.90;;;;;;5037073;28;20269;-77
2021/05/11 15:15:24;;;;;;;;;;;13.30;99.90;;;;;;5037240;28;20223;-77
2021/05/11 15:18:01;;;;;;;;;;;13.30;99.90;;;;;;5037560;28;20363;-78
2021/05/11 15:20:27;;;;;;;;;;;13.30;99.90;;;;;;5037601;28;19929;-78
2021/05/11 15:22:53;;;;;;;;;;;13.30;99.90;;;;;;5037770;28;19921;-77
2021/05/11 15:25:21;;;;;;;;;;;13.30;99.90;;;;;;5036856;28;19921;-77
2021/05/11 15:27:47;;;;;;;;;;;13.30;99.90;;;;;;5037654;28;20007;-77
2021/05/11 15:30:14;;;;;;;;;;;13.30;99.90;;;;;;5037450;28;19983;-78
2021/05/11 15:32:41;;;;;;;;;;;13.40;99.90;;;;;;5037354;28;19921;-78
2021/05/11 15:35:08;;;;;;;;;;;13.40;99.90;;;;;;5037295;28;19921;-78
2021/05/11 15:37:34;;;;;;;;;;;13.40;99.90;;;;;;5037394;28;20016;-77
2021/05/11 15:40:00;;;;;;;;;;;13.50;99.90;;;;;;5037435;28;19921;-78
2021/05/11 15:42:28;;;;;;;;;;;13.60;99.90;;;;;;5037078;28;20051;-77
2021/05/11 15:44:54;;;;;;;;;;;13.60;99.90;;;;;;5037350;28;19924;-78
2021/05/11 15:47:20;;;;;;;;;;;13.60;99.90;;;;;;5037302;28;19932;-78
2021/05/11 15:49:47;;;;;;;;;;;13.60;99.90;;;;;;5037036;28;19921;-77
2021/05/11 15:52:13;;;;;;;;;;;13.70;99.90;;;;;;5037040;28;19921;-78
2021/05/11 15:54:40;;;;;;;;;;;13.70;99.90;;;;;;5037237;28;19975;-78
2021/05/11 15:57:06;;;;;;;;;;;13.80;99.90;;;;;;5036869;28;19960;-77
2021/05/11 15:59:33;;;;;;;;;;;13.90;99.90;;;;;;5036823;28;19921;-77
2021/05/11 16:02:00;;;;;;;0.60;0.10;;;13.90;99.90;;;;;;5035661;28;20446;-78
2021/05/11 16:04:27;;;;;;;1.88;0.20;;;13.80;99.90;;;;;;5036595;28;20049;-77
2021/05/11 16:06:54;;;;;;;2.90;0.30;;;13.50;99.90;;;;;;5036248;28;20059;-77
2021/05/11 16:09:21;;;;;;;8.18;0.52;;;13.30;99.90;;;;;;5036013;28;20054;-77
2021/05/11 16:11:48;;;;;;;0.20;0.10;;;13.00;99.90;;;;;;5036065;28;20401;-77
2021/05/11 16:14:14;;;;;;;1.23;0.40;;;12.70;99.90;;;;;;5036327;28;20056;-78
2021/05/11 16:16:42;;;;;;;0.20;0.20;;;12.50;99.90;;;;;;5036343;28;20049;-77
2021/05/11 16:19:08;;;;;;;0.73;0.32;;;12.40;99.90;;;;;;5036249;28;20057;-78
2021/05/11 16:21:35;;;;;;;0.40;0.30;;;12.30;99.90;;;;;;5035879;28;20045;-77
2021/05/11 16:24:02;;;;;;;0.10;0.10;;;12.20;99.90;;;;;;5035962;28;20053;-77
2021/05/11 16:26:29;;;;;;;0.30;0.10;;;12.20;99.90;;;;;;5035819;28;20049;-76
2021/05/11 16:28:55;;;;;;;1.08;0.30;;;12.20;99.90;;;;;;5035811;28;20114;-77
2021/05/11 16:31:22;;;;;;;0.20;0.10;;;12.30;99.90;;;;;;5035887;28;20095;-76
2021/05/11 16:33:50;;;;;;;0.35;0.28;;;12.30;99.90;;;;;;5035956;28;20057;-77
2021/05/11 16:36:16;;;;;;;0.15;0.08;;;12.30;99.90;;;;;;5035936;28;20128;-77
2021/05/11 16:38:43;;;;;;;0.55;0.30;;;12.30;99.90;;;;;;5035646;28;20385;-76
2021/05/11 16:41:09;;;;;;;1.33;0.30;;;12.30;99.90;;;;;;5035812;28;20107;-78
2021/05/11 16:43:36;;;;;;;0.50;0.40;;;12.30;99.90;;;;;;5035665;28;20049;-76
2021/05/11 16:46:04;;;;;;;0.80;0.22;;;12.30;99.90;;;;;;5033552;28;20126;-77
2021/05/11 16:48:31;;;;;;;0.32;0.20;;;12.40;99.90;;;;;;5034533;28;20179;-77
2021/05/11 16:50:59;;;;;;;1.10;0.22;;;12.30;99.90;;;;;;5035093;28;20053;-76
2021/05/11 16:53:25;;;;;;;1.27;0.63;;;12.30;99.90;;;;;;5035562;28;20053;-77
2021/05/11 16:55:52;;;;;;;1.75;0.57;;;12.30;99.90;;;;;;5035486;28;20049;-77
2021/05/11 16:58:19;;;;;;;1.05;0.80;;;12.20;99.90;;;;;;5035196;28;20378;-77
2021/05/11 17:00:45;;;;;;;0.77;0.55;;;12.00;99.90;;;;;;5035300;28;20057;-76
2021/05/11 17:03:12;;;;;;;;;;;11.80;99.90;;;;;;5035712;28;20049;-76
2021/05/11 17:05:38;;;;;;;;;;;11.70;99.90;;;;;;5035524;28;19931;-76
2021/05/11 17:08:06;;;;;;;;;;;11.60;99.90;;;;;;5035433;28;19925;-76
2021/05/11 17:10:33;;;;;;;;;;;11.40;99.90;;;;;;5035334;28;20354;-76